sensor_id;sensor_type;location;lat;lon;timestamp;temperature;humidity
70928;SHT31;58587;53.034;18.576;2023-02-15T00:00:12;-0.22;93.47
70928;SHT31;58587;53.034;18.576;2023-02-15T14:05:29;4.16;83.30
70928;SHT31;58587;53.034;18.576;2023-02-15T14:16:17;4.11;83.89
70928;SHT31;58587;53.034;18.576;2023-02-15T14:18:52;4.17;84.14
70928;SHT31;58587;53.034;18.576;2023-02-15T14:21:27;4.14;83.96
70928;SHT31;58587;53.034;18.576;2023-02-15T14:24:23;4.20;84.08
70928;SHT31;58587;53.034;18.576;2023-02-15T14:29:54;4.14;84.54
70928;SHT31;58587;53.034;18.576;2023-02-15T14:32:38;4.20;84.71
70928;SHT31;58587;53.034;18.576;2023-02-15T14:35:14;4.20;84.60
70928;SHT31;58587;53.034;18.576;2023-02-15T14:41:18;4.18;84.63
70928;SHT31;58587;53.034;18.576;2023-02-15T14:48:52;4.17;84.44
70928;SHT31;58587;53.034;18.576;2023-02-15T14:54:07;4.10;84.48
70928;SHT31;58587;53.034;18.576;2023-02-15T14:56:33;4.03;84.18
70928;SHT31;58587;53.034;18.576;2023-02-15T14:59:01;4.07;84.41
70928;SHT31;58587;53.034;18.576;2023-02-15T15:01:35;4.00;84.38
70928;SHT31;58587;53.034;18.576;2023-02-15T15:04:07;3.97;84.19
70928;SHT31;58587;53.034;18.576;2023-02-15T15:06:36;3.96;84.33
70928;SHT31;58587;53.034;18.576;2023-02-15T15:11:45;3.90;84.36
70928;SHT31;58587;53.034;18.576;2023-02-15T15:16:56;3.79;84.96
70928;SHT31;58587;53.034;18.576;2023-02-15T15:22:19;3.78;85.27
70928;SHT31;58587;53.034;18.576;2023-02-15T15:35:43;3.78;85.56
70928;SHT31;58587;53.034;18.576;2023-02-15T15:41:23;3.75;85.75
70928;SHT31;58587;53.034;18.576;2023-02-15T15:44:17;3.69;85.87
70928;SHT31;58587;53.034;18.576;2023-02-15T15:49:24;3.68;85.97
70928;SHT31;58587;53.034;18.576;2023-02-15T15:51:52;3.65;85.77
70928;SHT31;58587;53.034;18.576;2023-02-15T15:54:23;3.70;86.67
70928;SHT31;58587;53.034;18.576;2023-02-15T15:56:53;3.68;86.06
70928;SHT31;58587;53.034;18.576;2023-02-15T15:59:23;3.65;86.13
70928;SHT31;58587;53.034;18.576;2023-02-15T16:01:49;3.62;86.06
70928;SHT31;58587;53.034;18.576;2023-02-15T16:04:30;3.60;86.15
70928;SHT31;58587;53.034;18.576;2023-02-15T16:06:57;3.63;86.34
70928;SHT31;58587;53.034;18.576;2023-02-15T16:09:25;3.60;86.22
70928;SHT31;58587;53.034;18.576;2023-02-15T16:11:57;3.52;86.31
70928;SHT31;58587;53.034;18.576;2023-02-15T16:14:31;3.54;86.43
70928;SHT31;58587;53.034;18.576;2023-02-15T16:17:01;3.49;86.50
70928;SHT31;58587;53.034;18.576;2023-02-15T16:19:32;3.46;86.67
70928;SHT31;58587;53.034;18.576;2023-02-15T16:21:59;3.46;86.59
70928;SHT31;58587;53.034;18.576;2023-02-15T16:27:40;3.49;86.84
70928;SHT31;58587;53.034;18.576;2023-02-15T16:30:32;3.43;86.97
70928;SHT31;58587;53.034;18.576;2023-02-15T16:33:12;3.46;87.01
70928;SHT31;58587;53.034;18.576;2023-02-15T16:35:52;3.42;86.99
70928;SHT31;58587;53.034;18.576;2023-02-15T16:38:23;3.39;87.07
70928;SHT31;58587;53.034;18.576;2023-02-15T16:40:54;3.39;87.17
70928;SHT31;58587;53.034;18.576;2023-02-15T16:43:26;3.38;87.26
70928;SHT31;58587;53.034;18.576;2023-02-15T16:46:06;3.36;87.42
70928;SHT31;58587;53.034;18.576;2023-02-15T16:48:34;3.36;87.47
70928;SHT31;58587;53.034;18.576;2023-02-15T16:51:00;3.32;87.46
70928;SHT31;58587;53.034;18.576;2023-02-15T16:53:27;3.32;87.44
70928;SHT31;58587;53.034;18.576;2023-02-15T16:55:55;3.32;87.61
70928;SHT31;58587;53.034;18.576;2023-02-15T16:58:45;3.28;87.66
70928;SHT31;58587;53.034;18.576;2023-02-15T17:01:14;3.31;87.62
70928;SHT31;58587;53.034;18.576;2023-02-15T17:03:41;3.29;87.52
70928;SHT31;58587;53.034;18.576;2023-02-15T17:06:25;3.31;87.43
70928;SHT31;58587;53.034;18.576;2023-02-15T17:08:52;3.32;87.54
70928;SHT31;58587;53.034;18.576;2023-02-15T17:11:20;3.31;87.63
70928;SHT31;58587;53.034;18.576;2023-02-15T17:16:32;3.27;87.83
70928;SHT31;58587;53.034;18.576;2023-02-15T17:19:01;3.31;87.87
70928;SHT31;58587;53.034;18.576;2023-02-15T17:21:43;3.31;87.74
70928;SHT31;58587;53.034;18.576;2023-02-15T17:24:18;3.25;87.69
70928;SHT31;58587;53.034;18.576;2023-02-15T17:26:49;3.22;87.78
70928;SHT31;58587;53.034;18.576;2023-02-15T17:29:33;3.21;87.87
70928;SHT31;58587;53.034;18.576;2023-02-15T17:32:01;3.17;87.76
70928;SHT31;58587;53.034;18.576;2023-02-15T17:34:59;3.21;87.96
70928;SHT31;58587;53.034;18.576;2023-02-15T17:37:31;3.15;87.92
70928;SHT31;58587;53.034;18.576;2023-02-15T17:39:58;3.12;88.05
70928;SHT31;58587;53.034;18.576;2023-02-15T17:42:23;3.14;88.24
70928;SHT31;58587;53.034;18.576;2023-02-15T17:44:49;3.14;88.06
70928;SHT31;58587;53.034;18.576;2023-02-15T17:47:17;3.15;88.13
70928;SHT31;58587;53.034;18.576;2023-02-15T17:49:43;3.12;88.25
70928;SHT31;58587;53.034;18.576;2023-02-15T17:52:12;3.09;88.25
70928;SHT31;58587;53.034;18.576;2023-02-15T17:54:39;3.11;88.29
70928;SHT31;58587;53.034;18.576;2023-02-15T17:57:23;3.11;88.20
70928;SHT31;58587;53.034;18.576;2023-02-15T17:59:48;3.15;88.34
70928;SHT31;58587;53.034;18.576;2023-02-15T18:02:34;3.12;88.41
70928;SHT31;58587;53.034;18.576;2023-02-15T18:05:18;3.09;88.57
70928;SHT31;58587;53.034;18.576;2023-02-15T18:08:03;3.09;88.43
70928;SHT31;58587;53.034;18.576;2023-02-15T18:10:47;3.09;88.58
70928;SHT31;58587;53.034;18.576;2023-02-15T18:13:31;3.14;88.69
70928;SHT31;58587;53.034;18.576;2023-02-15T18:15:56;3.09;88.51
70928;SHT31;58587;53.034;18.576;2023-02-15T18:18:22;3.09;88.63
70928;SHT31;58587;53.034;18.576;2023-02-15T18:20:48;3.11;88.74
70928;SHT31;58587;53.034;18.576;2023-02-15T18:23:13;3.12;88.71
70928;SHT31;58587;53.034;18.576;2023-02-15T18:25:39;3.09;88.85
70928;SHT31;58587;53.034;18.576;2023-02-15T18:28:05;3.08;89.01
70928;SHT31;58587;53.034;18.576;2023-02-15T18:30:31;3.08;89.04
70928;SHT31;58587;53.034;18.576;2023-02-15T18:32:57;3.07;89.03
70928;SHT31;58587;53.034;18.576;2023-02-15T18:35:26;3.07;89.04
70928;SHT31;58587;53.034;18.576;2023-02-15T18:37:52;3.07;89.11
70928;SHT31;58587;53.034;18.576;2023-02-15T18:40:20;3.03;89.11
70928;SHT31;58587;53.034;18.576;2023-02-15T18:42:46;3.03;89.08
70928;SHT31;58587;53.034;18.576;2023-02-15T18:47:38;2.98;89.24
70928;SHT31;58587;53.034;18.576;2023-02-15T18:50:05;2.91;89.43
70928;SHT31;58587;53.034;18.576;2023-02-15T18:52:32;2.97;89.10
70928;SHT31;58587;53.034;18.576;2023-02-15T18:54:59;2.91;89.16
70928;SHT31;58587;53.034;18.576;2023-02-15T18:57:27;2.87;89.26
70928;SHT31;58587;53.034;18.576;2023-02-15T18:59:52;2.84;89.40
70928;SHT31;58587;53.034;18.576;2023-02-15T19:02:18;2.80;89.24
70928;SHT31;58587;53.034;18.576;2023-02-15T19:04:44;2.80;89.33
70928;SHT31;58587;53.034;18.576;2023-02-15T19:07:22;2.76;89.37
70928;SHT31;58587;53.034;18.576;2023-02-15T19:09:58;2.70;89.23
70928;SHT31;58587;53.034;18.576;2023-02-15T19:12:25;2.70;89.63
70928;SHT31;58587;53.034;18.576;2023-02-15T19:14:51;2.67;89.72
70928;SHT31;58587;53.034;18.576;2023-02-15T19:17:19;2.65;89.54
70928;SHT31;58587;53.034;18.576;2023-02-15T19:19:45;2.63;89.79
70928;SHT31;58587;53.034;18.576;2023-02-15T19:22:15;2.56;89.64
70928;SHT31;58587;53.034;18.576;2023-02-15T19:24:43;2.56;89.69
70928;SHT31;58587;53.034;18.576;2023-02-15T19:27:34;2.52;89.48
70928;SHT31;58587;53.034;18.576;2023-02-15T19:30:02;2.47;89.76
70928;SHT31;58587;53.034;18.576;2023-02-15T19:32:28;2.43;89.90
70928;SHT31;58587;53.034;18.576;2023-02-15T19:34:55;2.42;89.92
70928;SHT31;58587;53.034;18.576;2023-02-15T19:37:34;2.36;89.86
70928;SHT31;58587;53.034;18.576;2023-02-15T19:40:01;2.30;90.39
70928;SHT31;58587;53.034;18.576;2023-02-15T19:42:27;2.30;90.21
70928;SHT31;58587;53.034;18.576;2023-02-15T19:44:52;2.26;90.16
70928;SHT31;58587;53.034;18.576;2023-02-15T19:47:19;2.23;90.16
70928;SHT31;58587;53.034;18.576;2023-02-15T19:49:44;2.23;90.11
70928;SHT31;58587;53.034;18.576;2023-02-15T19:52:20;2.15;90.22
70928;SHT31;58587;53.034;18.576;2023-02-15T19:54:48;2.12;90.12
70928;SHT31;58587;53.034;18.576;2023-02-15T19:57:13;2.06;90.40
70928;SHT31;58587;53.034;18.576;2023-02-15T19:59:39;2.06;90.34
70928;SHT31;58587;53.034;18.576;2023-02-15T20:02:06;2.02;90.33
70928;SHT31;58587;53.034;18.576;2023-02-15T20:04:31;2.01;90.52
70928;SHT31;58587;53.034;18.576;2023-02-15T20:06:59;1.99;90.65
70928;SHT31;58587;53.034;18.576;2023-02-15T20:09:29;1.98;90.81
70928;SHT31;58587;53.034;18.576;2023-02-15T20:11:55;1.95;90.72
70928;SHT31;58587;53.034;18.576;2023-02-15T20:14:21;1.91;90.80
70928;SHT31;58587;53.034;18.576;2023-02-15T20:16:47;1.88;91.20
70928;SHT31;58587;53.034;18.576;2023-02-15T20:19:13;1.83;91.48
70928;SHT31;58587;53.034;18.576;2023-02-15T20:21:40;1.85;91.59
70928;SHT31;58587;53.034;18.576;2023-02-15T20:24:12;1.82;91.74
70928;SHT31;58587;53.034;18.576;2023-02-15T20:26:38;1.81;91.73
70928;SHT31;58587;53.034;18.576;2023-02-15T20:29:04;1.79;91.75
70928;SHT31;58587;53.034;18.576;2023-02-15T20:31:30;1.78;91.67
70928;SHT31;58587;53.034;18.576;2023-02-15T20:33:56;1.75;91.62
70928;SHT31;58587;53.034;18.576;2023-02-15T20:36:22;1.71;91.86
70928;SHT31;58587;53.034;18.576;2023-02-15T20:38:49;1.71;91.86
70928;SHT31;58587;53.034;18.576;2023-02-15T20:41:17;1.71;92.01
70928;SHT31;58587;53.034;18.576;2023-02-15T20:44:13;1.69;92.09
70928;SHT31;58587;53.034;18.576;2023-02-15T20:46:40;1.68;92.06
70928;SHT31;58587;53.034;18.576;2023-02-15T20:49:05;1.68;92.03
70928;SHT31;58587;53.034;18.576;2023-02-15T20:51:31;1.65;92.08
70928;SHT31;58587;53.034;18.576;2023-02-15T20:53:56;1.61;92.25
70928;SHT31;58587;53.034;18.576;2023-02-15T20:56:23;1.61;92.35
70928;SHT31;58587;53.034;18.576;2023-02-15T20:58:49;1.57;92.40
70928;SHT31;58587;53.034;18.576;2023-02-15T21:01:15;1.58;92.34
70928;SHT31;58587;53.034;18.576;2023-02-15T21:03:40;1.54;92.38
70928;SHT31;58587;53.034;18.576;2023-02-15T21:06:06;1.51;92.38
70928;SHT31;58587;53.034;18.576;2023-02-15T21:08:33;1.50;92.44
70928;SHT31;58587;53.034;18.576;2023-02-15T21:10:59;1.44;92.37
70928;SHT31;58587;53.034;18.576;2023-02-15T21:13:30;1.40;92.34
70928;SHT31;58587;53.034;18.576;2023-02-15T21:15:57;1.36;92.38
70928;SHT31;58587;53.034;18.576;2023-02-15T21:18:24;1.34;92.51
70928;SHT31;58587;53.034;18.576;2023-02-15T21:20:52;1.36;92.57
70928;SHT31;58587;53.034;18.576;2023-02-15T21:23:21;1.31;92.82
70928;SHT31;58587;53.034;18.576;2023-02-15T21:25:47;1.31;92.67
70928;SHT31;58587;53.034;18.576;2023-02-15T21:28:19;1.26;92.82
70928;SHT31;58587;53.034;18.576;2023-02-15T21:30:45;1.27;92.81
70928;SHT31;58587;53.034;18.576;2023-02-15T21:33:10;1.24;92.81
70928;SHT31;58587;53.034;18.576;2023-02-15T21:35:36;1.23;92.89
70928;SHT31;58587;53.034;18.576;2023-02-15T21:38:02;1.23;92.79
70928;SHT31;58587;53.034;18.576;2023-02-15T21:40:29;1.20;92.81
70928;SHT31;58587;53.034;18.576;2023-02-15T21:42:56;1.19;92.92
70928;SHT31;58587;53.034;18.576;2023-02-15T21:45:41;1.14;93.09
70928;SHT31;58587;53.034;18.576;2023-02-15T21:48:25;1.13;93.12
70928;SHT31;58587;53.034;18.576;2023-02-15T21:50:51;1.13;93.18
70928;SHT31;58587;53.034;18.576;2023-02-15T21:53:38;1.10;93.20
70928;SHT31;58587;53.034;18.576;2023-02-15T21:56:10;1.12;93.30
70928;SHT31;58587;53.034;18.576;2023-02-15T21:58:36;1.04;93.32
70928;SHT31;58587;53.034;18.576;2023-02-15T22:01:03;1.07;93.52
70928;SHT31;58587;53.034;18.576;2023-02-15T22:03:31;1.07;93.51
70928;SHT31;58587;53.034;18.576;2023-02-15T22:05:57;1.04;93.76
70928;SHT31;58587;53.034;18.576;2023-02-15T22:08:22;1.01;93.68
70928;SHT31;58587;53.034;18.576;2023-02-15T22:10:48;1.00;93.57
70928;SHT31;58587;53.034;18.576;2023-02-15T22:13:15;0.99;93.62
70928;SHT31;58587;53.034;18.576;2023-02-15T22:15:42;0.93;93.55
70928;SHT31;58587;53.034;18.576;2023-02-15T22:18:22;0.94;93.58
70928;SHT31;58587;53.034;18.576;2023-02-15T22:20:48;0.93;93.48
70928;SHT31;58587;53.034;18.576;2023-02-15T22:23:13;0.93;93.72
70928;SHT31;58587;53.034;18.576;2023-02-15T22:25:38;0.92;93.67
70928;SHT31;58587;53.034;18.576;2023-02-15T22:28:04;0.89;93.55
70928;SHT31;58587;53.034;18.576;2023-02-15T22:30:33;0.87;93.44
70928;SHT31;58587;53.034;18.576;2023-02-15T22:33:00;0.86;93.63
70928;SHT31;58587;53.034;18.576;2023-02-15T22:35:31;0.83;93.56
70928;SHT31;58587;53.034;18.576;2023-02-15T22:37:56;0.83;93.66
70928;SHT31;58587;53.034;18.576;2023-02-15T22:40:27;0.80;93.57
70928;SHT31;58587;53.034;18.576;2023-02-15T22:42:53;0.83;93.78
70928;SHT31;58587;53.034;18.576;2023-02-15T22:45:21;0.80;93.82
70928;SHT31;58587;53.034;18.576;2023-02-15T22:47:50;0.76;93.68
70928;SHT31;58587;53.034;18.576;2023-02-15T22:50:19;0.75;93.73
70928;SHT31;58587;53.034;18.576;2023-02-15T22:52:44;0.75;93.64
70928;SHT31;58587;53.034;18.576;2023-02-15T22:55:13;0.75;93.54
70928;SHT31;58587;53.034;18.576;2023-02-15T22:57:40;0.73;93.46
70928;SHT31;58587;53.034;18.576;2023-02-15T23:00:06;0.70;93.46
70928;SHT31;58587;53.034;18.576;2023-02-15T23:02:31;0.69;93.49
70928;SHT31;58587;53.034;18.576;2023-02-15T23:04:57;0.69;93.47
70928;SHT31;58587;53.034;18.576;2023-02-15T23:07:22;0.66;93.58
70928;SHT31;58587;53.034;18.576;2023-02-15T23:09:47;0.68;93.56
70928;SHT31;58587;53.034;18.576;2023-02-15T23:12:26;0.62;93.49
70928;SHT31;58587;53.034;18.576;2023-02-15T23:14:52;0.61;93.71
70928;SHT31;58587;53.034;18.576;2023-02-15T23:17:18;0.59;93.58
70928;SHT31;58587;53.034;18.576;2023-02-15T23:19:44;0.58;93.52
70928;SHT31;58587;53.034;18.576;2023-02-15T23:22:17;0.49;93.69
70928;SHT31;58587;53.034;18.576;2023-02-15T23:24:45;0.46;93.81
70928;SHT31;58587;53.034;18.576;2023-02-15T23:27:16;0.49;93.85
70928;SHT31;58587;53.034;18.576;2023-02-15T23:30:03;0.41;93.61
70928;SHT31;58587;53.034;18.576;2023-02-15T23:32:30;0.41;93.84
70928;SHT31;58587;53.034;18.576;2023-02-15T23:34:55;0.38;93.78
70928;SHT31;58587;53.034;18.576;2023-02-15T23:37:20;0.38;93.81
70928;SHT31;58587;53.034;18.576;2023-02-15T23:39:46;0.29;93.69
70928;SHT31;58587;53.034;18.576;2023-02-15T23:42:30;0.28;93.69
70928;SHT31;58587;53.034;18.576;2023-02-15T23:44:57;0.28;93.81
70928;SHT31;58587;53.034;18.576;2023-02-15T23:47:26;0.29;93.77
70928;SHT31;58587;53.034;18.576;2023-02-15T23:50:17;0.21;93.95
70928;SHT31;58587;53.034;18.576;2023-02-15T23:52:42;0.21;93.84
70928;SHT31;58587;53.034;18.576;2023-02-15T23:55:13;0.21;94.17
70928;SHT31;58587;53.034;18.576;2023-02-15T23:57:40;0.21;94.05
